ESNL

Lycksele Airport

Sweden
METAR ESNL 170150Z AUTO 00000KT 9999 NCD M20/M23 Q1004
Observed Flight Rules
Dec-17 @ 01:50 UTC (34 minutes ago) Visual Flight Rules
Wind Visibility Clouds
Calm 10,000+ meters
  • Clear skies
Temperatures Readings
Current -20°C / -4°F
Dewpoint -23°C / -9°F
Humidity 77%
Altimeter 29.65" Hg
Pressure 1004 hPa
Elevation 214
METAR ESNL 170150Z AUTO 00000KT 9999 NCD M20/M23 Q1004
Observed Flight Rules
Dec-17 @ 01:50 UTC
(34 minutes ago)
VFR
Wind Visibility
Calm 10,000+ meters
Clouds
  • Clear skies
Temperature Dewpoint
-20°C / -4°F -23°C / -9°F
Humidity Altimeter Pressure
77% 29.65" Hg 1004 hPa